createdAt,value
2023-05-14T00:01:25.054Z,8.55
2023-05-14T00:04:27.600Z,9.35
2023-05-14T00:07:31.011Z,9.90
2023-05-14T00:10:33.793Z,9.35
2023-05-14T00:13:36.462Z,7.80
2023-05-14T00:16:38.959Z,9.77
2023-05-14T00:19:42.152Z,8.73
2023-05-14T00:22:44.722Z,9.10
2023-05-14T00:25:47.209Z,9.45
2023-05-14T00:28:49.695Z,8.43
2023-05-14T00:31:52.766Z,7.53
2023-05-14T00:34:55.726Z,8.68
2023-05-14T00:37:58.479Z,9.98
2023-05-14T00:41:01.212Z,8.73
2023-05-14T00:44:03.838Z,9.73
2023-05-14T00:47:06.918Z,9.15
2023-05-14T00:50:09.869Z,8.85
2023-05-14T00:53:12.589Z,6.60
2023-05-14T00:56:15.676Z,8.32
2023-05-14T00:59:18.671Z,7.63
2023-05-14T01:02:21.304Z,8.35
2023-05-14T01:05:23.955Z,8.30
2023-05-14T01:08:44.464Z,7.13
2023-05-14T01:12:17.228Z,7.97
2023-05-14T01:15:28.690Z,7.50
2023-05-14T01:18:31.339Z,8.25
2023-05-14T01:21:36.553Z,8.20
2023-05-14T01:24:39.142Z,8.43
2023-05-14T01:28:01.259Z,9.52
2023-05-14T01:31:17.525Z,8.65
2023-05-14T01:34:21.433Z,9.70
2023-05-14T01:37:24.098Z,9.02
2023-05-14T01:40:26.700Z,8.35
2023-05-14T01:43:29.522Z,8.60
2023-05-14T01:46:35.818Z,8.52
2023-05-14T01:49:38.372Z,9.43
2023-05-14T01:52:40.934Z,7.28
2023-05-14T01:55:43.457Z,7.80
2023-05-14T01:58:45.900Z,8.98
2023-05-14T02:01:48.444Z,7.72
2023-05-14T02:04:51.289Z,8.57
2023-05-14T02:07:53.646Z,7.88
2023-05-14T02:10:56.138Z,7.82
2023-05-14T02:14:00.775Z,8.55
2023-05-14T02:17:03.622Z,8.25
2023-05-14T02:20:07.135Z,7.82
2023-05-14T02:23:09.759Z,8.60
2023-05-14T02:26:12.761Z,8.52
2023-05-14T02:29:15.501Z,7.97
2023-05-14T02:32:18.259Z,8.20
2023-05-14T02:35:21.030Z,8.38
2023-05-14T02:38:23.855Z,7.80
2023-05-14T02:41:26.388Z,7.78
2023-05-14T02:44:29.181Z,9.63
2023-05-14T02:47:31.707Z,6.80
2023-05-14T02:50:34.285Z,8.35
2023-05-14T02:59:41.721Z,8.32
2023-05-14T03:02:44.820Z,7.53
2023-05-14T03:05:47.934Z,7.07
2023-05-14T03:08:50.679Z,8.52
2023-05-14T03:11:53.314Z,7.60
2023-05-14T03:14:55.983Z,8.70
2023-05-14T03:17:58.832Z,8.73
2023-05-14T03:21:01.455Z,8.38
2023-05-14T03:24:03.984Z,7.78
2023-05-14T03:27:06.597Z,6.97
2023-05-14T03:30:09.735Z,7.50
2023-05-14T03:33:12.566Z,7.32
2023-05-14T03:36:14.933Z,7.72
2023-05-14T03:39:20.303Z,7.10
2023-05-14T03:42:22.730Z,6.72
2023-05-14T03:45:25.189Z,7.47
2023-05-14T03:48:27.811Z,7.57
2023-05-14T03:51:31.865Z,7.95
2023-05-14T03:54:34.423Z,6.88
2023-05-14T03:57:37.046Z,6.70
2023-05-14T04:00:41.313Z,7.00
2023-05-14T04:03:44.160Z,6.68
2023-05-14T04:06:46.722Z,7.03
2023-05-14T04:09:49.312Z,6.95
2023-05-14T04:12:51.913Z,6.30
2023-05-14T04:15:54.482Z,7.80
2023-05-14T04:18:58.117Z,7.68
2023-05-14T04:22:00.738Z,7.10
2023-05-14T04:25:03.337Z,8.23
2023-05-14T04:28:06.302Z,7.25
2023-05-14T04:31:08.711Z,7.13
2023-05-14T04:34:11.173Z,7.50
2023-05-14T04:37:14.105Z,6.65
2023-05-14T04:40:21.946Z,7.25
2023-05-14T04:43:25.648Z,6.75
2023-05-14T04:46:28.877Z,5.93
2023-05-14T04:49:32.029Z,7.25
2023-05-14T04:52:34.560Z,5.97
2023-05-14T04:55:37.064Z,7.28
2023-05-14T04:58:39.567Z,7.57
2023-05-14T05:01:42.007Z,6.85
2023-05-14T05:04:44.658Z,11.38
2023-05-14T05:07:47.096Z,8.45
2023-05-14T05:10:49.551Z,6.28
2023-05-14T05:13:51.963Z,7.95
2023-05-14T05:16:54.848Z,7.80
2023-05-14T05:19:57.393Z,8.63
2023-05-14T05:22:59.949Z,8.50
2023-05-14T05:26:02.608Z,8.60
2023-05-14T05:29:05.587Z,8.50
2023-05-14T05:32:08.269Z,7.90
2023-05-14T05:35:10.769Z,7.80
2023-05-14T05:38:15.103Z,7.32
2023-05-14T05:41:17.617Z,7.10
2023-05-14T05:44:21.374Z,7.97
2023-05-14T05:47:24.043Z,8.38
2023-05-14T05:50:26.566Z,9.00
2023-05-14T05:53:29.097Z,8.55
2023-05-14T05:56:31.920Z,9.20
2023-05-14T05:59:34.433Z,7.20
2023-05-14T06:02:36.902Z,7.05
2023-05-14T06:05:39.761Z,7.95
2023-05-14T06:08:42.318Z,9.27
2023-05-14T06:11:44.851Z,7.78
2023-05-14T06:14:47.320Z,7.00
2023-05-14T06:17:49.816Z,6.80
2023-05-14T06:20:52.240Z,7.93
2023-05-14T06:23:54.706Z,7.68
2023-05-14T06:26:59.169Z,8.65
2023-05-14T06:30:01.612Z,8.77
2023-05-14T06:33:04.225Z,8.15
2023-05-14T06:36:07.881Z,7.78
2023-05-14T06:39:10.386Z,7.88
2023-05-14T06:42:13.062Z,7.35
2023-05-14T06:45:16.371Z,8.40
2023-05-14T06:48:19.360Z,8.48
2023-05-14T06:51:22.189Z,7.75
2023-05-14T06:54:24.850Z,9.25
2023-05-14T06:57:27.492Z,7.50
2023-05-14T07:00:30.679Z,8.68
2023-05-14T07:03:33.177Z,8.70
2023-05-14T07:06:35.758Z,10.00
2023-05-14T07:09:38.467Z,7.13
2023-05-14T07:12:40.942Z,7.95
2023-05-14T07:15:43.932Z,8.23
2023-05-14T07:18:46.574Z,7.30
2023-05-14T07:21:51.730Z,6.85
2023-05-14T07:24:54.251Z,7.68
2023-05-14T07:27:56.725Z,8.25
2023-05-14T07:30:59.427Z,8.80
2023-05-14T07:34:01.904Z,9.82
2023-05-14T07:37:04.538Z,8.23
2023-05-14T07:40:07.613Z,9.63
2023-05-14T07:43:10.680Z,8.23
2023-05-14T07:49:15.836Z,9.75
2023-05-14T07:52:18.249Z,8.77
2023-05-14T07:55:21.034Z,8.80
2023-05-14T07:58:23.729Z,7.75
2023-05-14T08:01:26.482Z,9.57
2023-05-14T08:04:29.091Z,9.30
2023-05-14T08:10:37.004Z,10.40
2023-05-14T08:13:39.765Z,7.80
2023-05-14T08:16:42.308Z,8.48
2023-05-14T08:19:44.880Z,9.30
2023-05-14T08:22:47.377Z,9.05
2023-05-14T08:25:49.807Z,10.15
2023-05-14T08:28:56.200Z,9.70
2023-05-14T08:32:00.311Z,9.35
2023-05-14T08:35:06.906Z,8.60
2023-05-14T08:38:09.402Z,8.93
2023-05-14T08:41:12.117Z,9.60
2023-05-14T08:44:36.718Z,7.47
2023-05-14T08:47:39.391Z,8.55
2023-05-14T08:50:41.811Z,8.60
2023-05-14T08:53:44.722Z,9.05
2023-05-14T08:59:49.398Z,10.30
2023-05-14T09:02:51.911Z,9.35
2023-05-14T09:05:54.381Z,10.25
2023-05-14T09:08:57.147Z,9.70
2023-05-14T09:11:59.627Z,8.25
2023-05-14T09:15:02.216Z,8.55
2023-05-14T09:18:05.960Z,8.00
2023-05-14T09:21:08.475Z,8.60
2023-05-14T09:24:13.722Z,8.57
2023-05-14T09:27:20.041Z,7.32
2023-05-14T09:30:22.785Z,9.15
2023-05-14T09:33:28.791Z,9.27
2023-05-14T09:36:31.886Z,11.25
2023-05-14T09:39:36.242Z,9.75
2023-05-14T09:42:38.829Z,10.30
2023-05-14T09:45:43.760Z,10.80
2023-05-14T09:48:46.362Z,9.88
2023-05-14T09:51:49.188Z,8.98
2023-05-14T09:54:52.493Z,7.93
2023-05-14T09:57:54.965Z,11.48
2023-05-14T10:00:58.058Z,9.35
2023-05-14T10:04:01.465Z,11.32
2023-05-14T10:07:04.136Z,8.57
2023-05-14T10:10:07.814Z,8.85
2023-05-14T10:13:14.854Z,11.48
2023-05-14T10:16:20.787Z,9.50
2023-05-14T10:19:24.379Z,9.27
2023-05-14T10:22:31.052Z,9.73
2023-05-14T10:25:34.973Z,10.23
2023-05-14T10:28:37.561Z,8.98
2023-05-14T10:31:58.124Z,9.52
2023-05-14T10:35:01.769Z,9.63
2023-05-14T10:38:08.628Z,8.82
2023-05-14T10:41:18.156Z,9.60
2023-05-14T10:44:20.624Z,10.63
2023-05-14T10:47:23.086Z,10.18
2023-05-14T10:50:25.772Z,11.18
2023-05-14T10:56:40.247Z,9.52
2023-05-14T10:59:43.456Z,8.95
2023-05-14T11:02:46.994Z,8.77
2023-05-14T11:05:49.798Z,9.35
2023-05-14T11:08:52.940Z,8.70
2023-05-14T11:11:55.540Z,8.93
2023-05-14T11:14:59.396Z,9.77
2023-05-14T11:18:02.259Z,8.48
2023-05-14T11:21:05.136Z,8.65
2023-05-14T11:24:07.894Z,11.07
2023-05-14T11:27:10.999Z,7.55
2023-05-14T11:30:18.126Z,11.13
2023-05-14T11:33:21.067Z,8.82
2023-05-14T11:36:23.553Z,10.35
2023-05-14T11:39:26.017Z,8.90
2023-05-14T11:42:28.510Z,9.60
2023-05-14T11:45:33.208Z,9.23
2023-05-14T11:48:35.803Z,9.52
2023-05-14T11:51:38.180Z,9.77
2023-05-14T11:54:41.312Z,9.18
2023-05-14T11:57:44.060Z,10.00
2023-05-14T12:00:46.745Z,12.20
2023-05-14T12:03:49.320Z,9.45
2023-05-14T12:06:52.262Z,8.50
2023-05-14T12:09:54.699Z,8.90
2023-05-14T12:12:57.146Z,11.32
2023-05-14T12:16:02.064Z,9.02
2023-05-14T12:19:04.745Z,10.07
2023-05-14T12:22:07.695Z,10.63
2023-05-14T12:28:18.852Z,11.98
2023-05-14T12:34:30.145Z,11.93
2023-05-14T12:37:33.353Z,10.70
2023-05-14T12:40:36.553Z,11.30
2023-05-14T12:43:42.749Z,11.18
2023-05-14T12:46:45.393Z,12.50
2023-05-14T12:49:48.516Z,12.43
2023-05-14T12:55:53.759Z,12.02
2023-05-14T12:58:56.585Z,9.45
2023-05-14T13:01:58.975Z,11.38
2023-05-14T13:05:03.817Z,11.02
2023-05-14T13:08:06.338Z,11.68
2023-05-14T13:11:08.959Z,9.77
2023-05-14T13:14:14.235Z,10.88
2023-05-14T13:17:16.772Z,10.35
2023-05-14T13:20:19.371Z,11.48
2023-05-14T13:23:21.890Z,9.95
2023-05-14T13:29:31.787Z,11.32
2023-05-14T13:32:34.443Z,11.45
2023-05-14T13:35:36.967Z,10.45
2023-05-14T13:38:39.390Z,11.60
2023-05-14T13:41:42.117Z,11.38
2023-05-14T13:44:44.985Z,13.30
2023-05-14T13:47:48.780Z,10.25
2023-05-14T13:50:52.263Z,13.98
2023-05-14T13:57:02.094Z,11.00
2023-05-14T14:00:05.470Z,11.32
2023-05-14T14:03:08.347Z,12.38
2023-05-14T14:09:13.905Z,12.77
2023-05-14T14:12:16.421Z,14.68
2023-05-14T14:15:19.087Z,13.55
2023-05-14T14:18:21.623Z,13.23
2023-05-14T14:21:24.177Z,13.65
2023-05-14T14:24:26.595Z,14.10
2023-05-14T14:27:31.214Z,14.07
2023-05-14T14:30:33.765Z,11.95
2023-05-14T14:33:36.167Z,9.98
2023-05-14T14:36:38.602Z,8.43
2023-05-14T14:39:41.019Z,7.88
2023-05-14T14:42:43.575Z,8.20
2023-05-14T14:45:48.882Z,8.27
2023-05-14T14:48:51.753Z,10.27
2023-05-14T14:51:54.444Z,8.93
2023-05-14T14:54:57.060Z,8.25
2023-05-14T14:57:59.443Z,8.68
2023-05-14T15:01:02.149Z,7.75
2023-05-14T15:04:04.804Z,9.88
2023-05-14T15:07:07.264Z,7.20
2023-05-14T15:10:09.923Z,8.15
2023-05-14T15:13:12.615Z,7.18
2023-05-14T15:16:15.676Z,8.10
2023-05-14T15:22:20.508Z,7.38
2023-05-14T15:25:23.737Z,8.45
2023-05-14T15:28:26.482Z,6.70
2023-05-14T15:31:29.160Z,7.15
2023-05-14T15:34:33.011Z,7.95
2023-05-14T15:37:40.382Z,7.20
2023-05-14T15:40:42.936Z,7.45
2023-05-14T15:43:45.475Z,7.25
2023-05-14T15:46:47.998Z,7.82
2023-05-14T15:49:50.561Z,6.15
2023-05-14T15:52:55.253Z,9.10
2023-05-14T15:55:57.630Z,9.85
2023-05-14T15:59:00.045Z,9.25
2023-05-14T16:02:02.553Z,8.25
2023-05-14T16:05:05.751Z,7.85
2023-05-14T16:08:08.336Z,7.00
2023-05-14T16:11:10.686Z,7.78
2023-05-14T16:14:13.119Z,5.78
2023-05-14T16:17:15.610Z,7.35
2023-05-14T16:20:18.200Z,6.40
2023-05-14T16:23:20.578Z,7.15
2023-05-14T16:26:23.284Z,6.75
2023-05-14T16:29:25.715Z,6.53
2023-05-14T16:32:28.346Z,5.90
2023-05-14T16:35:30.905Z,7.30
2023-05-14T16:38:33.486Z,7.97
2023-05-14T16:41:36.229Z,5.63
2023-05-14T16:44:38.973Z,5.88
2023-05-14T16:47:41.546Z,6.65
2023-05-14T16:50:44.472Z,6.50
2023-05-14T16:53:46.938Z,6.88
2023-05-14T16:56:53.607Z,5.50
2023-05-14T16:59:56.906Z,6.53
2023-05-14T17:03:02.472Z,6.25
2023-05-14T17:06:05.116Z,5.53
2023-05-14T17:09:07.787Z,5.07
2023-05-14T17:12:11.242Z,7.20
2023-05-14T17:15:14.129Z,5.53
2023-05-14T17:18:16.662Z,6.55
2023-05-14T17:21:22.258Z,7.07
2023-05-14T17:24:24.935Z,6.00
2023-05-14T17:27:29.326Z,6.10
2023-05-14T17:30:31.802Z,7.05
2023-05-14T17:33:34.770Z,7.00
2023-05-14T17:36:37.302Z,8.07
2023-05-14T17:39:39.698Z,9.40
2023-05-14T17:42:42.190Z,6.82
2023-05-14T17:45:53.995Z,7.53
2023-05-14T17:48:58.449Z,8.98
2023-05-14T17:52:00.976Z,8.77
2023-05-14T17:55:04.108Z,10.50
2023-05-14T18:04:11.488Z,7.40
2023-05-14T18:07:14.121Z,6.57
2023-05-14T18:10:16.536Z,7.63
2023-05-14T18:13:19.002Z,7.20
2023-05-14T18:16:21.840Z,7.55
2023-05-14T18:19:25.074Z,7.90
2023-05-14T18:25:29.917Z,8.10
2023-05-14T18:28:32.273Z,8.88
2023-05-14T18:31:35.031Z,11.15
2023-05-14T18:34:37.607Z,8.18
2023-05-14T18:37:40.110Z,8.20
2023-05-14T18:40:42.720Z,7.63
2023-05-14T18:43:45.359Z,9.25
2023-05-14T18:46:47.808Z,8.93
2023-05-14T18:49:54.887Z,9.68
2023-05-14T18:52:57.573Z,8.63
2023-05-14T18:56:00.251Z,8.15
2023-05-14T18:59:02.848Z,8.68
2023-05-14T19:02:05.756Z,7.93
2023-05-14T19:05:08.498Z,8.45
2023-05-14T19:08:11.092Z,9.52
2023-05-14T19:11:14.936Z,11.88
2023-05-14T19:14:17.329Z,9.43
2023-05-14T19:17:20.611Z,7.85
2023-05-14T19:20:23.295Z,9.38
2023-05-14T19:23:25.774Z,8.20
2023-05-14T19:26:28.246Z,9.13
2023-05-14T19:29:32.641Z,8.00
2023-05-14T19:32:37.411Z,8.98
2023-05-14T19:35:39.972Z,8.07
2023-05-14T19:38:42.734Z,8.77
2023-05-14T19:41:45.332Z,8.35
2023-05-14T19:44:47.768Z,7.82
2023-05-14T19:47:50.286Z,8.07
2023-05-14T19:50:52.830Z,8.52
2023-05-14T19:53:55.356Z,8.43
2023-05-14T19:56:57.831Z,9.20
2023-05-14T20:00:00.381Z,8.10
2023-05-14T20:03:03.831Z,8.68
2023-05-14T20:06:07.415Z,9.38
2023-05-14T20:09:10.204Z,7.70
2023-05-14T20:12:13.339Z,8.65
2023-05-14T20:15:15.792Z,9.80
2023-05-14T20:18:18.335Z,9.85
2023-05-14T20:21:20.730Z,9.43
2023-05-14T20:24:23.235Z,8.68
2023-05-14T20:27:25.760Z,8.98
2023-05-14T20:30:28.498Z,9.52
2023-05-14T20:33:30.961Z,12.32
2023-05-14T20:36:33.486Z,8.75
2023-05-14T20:39:36.094Z,9.40
2023-05-14T20:42:38.775Z,11.57
2023-05-14T20:45:41.776Z,8.30
2023-05-14T20:48:44.291Z,9.52
2023-05-14T20:51:46.730Z,7.95
2023-05-14T20:54:49.210Z,9.23
2023-05-14T20:57:53.655Z,8.23
2023-05-14T21:00:57.977Z,8.68
2023-05-14T21:04:01.250Z,8.55
2023-05-14T21:07:04.495Z,9.52
2023-05-14T21:13:10.297Z,8.13
2023-05-14T21:16:12.875Z,9.68
2023-05-14T21:19:15.743Z,7.88
2023-05-14T21:22:18.117Z,7.72
2023-05-14T21:25:20.750Z,10.27
2023-05-14T21:28:23.192Z,8.13
2023-05-14T21:31:25.638Z,8.50
2023-05-14T21:34:29.788Z,7.57
2023-05-14T21:37:33.807Z,8.23
2023-05-14T21:40:36.652Z,6.90
2023-05-14T21:43:40.823Z,6.88
2023-05-14T21:46:43.344Z,9.68
2023-05-14T21:49:45.746Z,7.47
2023-05-14T21:52:48.200Z,6.80
2023-05-14T21:55:50.646Z,7.70
2023-05-14T21:58:55.548Z,8.05
2023-05-14T22:02:06.735Z,8.02
2023-05-14T22:05:10.061Z,7.47
2023-05-14T22:08:13.346Z,8.50
2023-05-14T22:11:18.822Z,8.38
2023-05-14T22:14:21.433Z,9.05
2023-05-14T22:17:23.907Z,7.78
2023-05-14T22:20:26.400Z,7.78
2023-05-14T22:23:28.874Z,8.25
2023-05-14T22:26:31.491Z,7.13
2023-05-14T22:29:34.588Z,7.90
2023-05-14T22:32:38.403Z,8.55
2023-05-14T22:35:41.063Z,8.48
2023-05-14T22:38:43.925Z,8.60
2023-05-14T22:44:49.479Z,7.68
2023-05-14T22:47:51.915Z,7.05
2023-05-14T22:50:54.428Z,8.30
2023-05-14T22:53:57.167Z,8.38
2023-05-14T22:56:59.588Z,7.63
2023-05-14T23:00:02.295Z,8.05
2023-05-14T23:03:05.064Z,8.23
2023-05-14T23:06:07.845Z,9.35
2023-05-14T23:12:12.953Z,10.82
2023-05-14T23:15:15.900Z,9.70
2023-05-14T23:18:19.022Z,8.32
2023-05-14T23:21:21.654Z,8.13
2023-05-14T23:24:24.132Z,8.77
2023-05-14T23:27:27.290Z,9.25
2023-05-14T23:30:29.899Z,9.30
2023-05-14T23:33:32.429Z,8.65
2023-05-14T23:36:35.786Z,9.18
2023-05-14T23:39:38.387Z,10.88
2023-05-14T23:42:41.325Z,9.27
2023-05-14T23:48:46.230Z,8.00
2023-05-14T23:51:48.678Z,10.27
2023-05-14T23:54:51.115Z,8.70
2023-05-14T23:57:53.621Z,10.15
